Time;durP1;ratioP1;P1;durP2;ratioP2;P2;SDS_P1;SDS_P2;PMS_P1;PMS_P2;Temp;Humidity;BMP_temperature;BMP_pressure;BME280_temperature;BME280_humidity;BME280_pressure;Samples;Min_cycle;Max_cycle;Signal;HPM_P1;HPM_P2
2023/03/25 00:00:56;;;;;;;54.00;21.10;;;;;;;12.13;67.92;97442.06;4969184;28;20022;-73
2023/03/25 00:03:23;;;;;;;19.02;10.40;;;;;;;12.11;67.78;97436.09;4970008;28;20030;-73
2023/03/25 00:05:48;;;;;;;12.90;7.50;;;;;;;12.09;68.04;97443.06;4970523;28;20729;-74
2023/03/25 00:08:14;;;;;;;11.68;7.07;;;;;;;12.07;68.03;97448.88;4970431;28;20149;-74
2023/03/25 00:10:40;;;;;;;6.80;4.55;;;;;;;12.06;68.03;97439.84;4969028;28;20062;-73
2023/03/25 00:13:07;;;;;;;13.82;7.57;;;;;;;12.08;68.04;97444.19;4968765;28;20387;-74
2023/03/25 00:15:33;;;;;;;18.70;8.60;;;;;;;12.04;67.69;97444.84;4969208;28;20042;-75
2023/03/25 00:18:01;;;;;;;22.33;9.48;;;;;;;12.06;67.56;97450.84;4970031;28;20031;-74
2023/03/25 00:20:27;;;;;;;27.17;12.32;;;;;;;12.07;68.09;97440.63;4972571;28;20027;-74
2023/03/25 00:22:53;;;;;;;23.17;11.18;;;;;;;12.07;67.68;97435.13;4972977;28;20033;-74
2023/03/25 00:25:19;;;;;;;23.98;10.45;;;;;;;12.06;67.87;97439.84;4972748;28;20162;-74
2023/03/25 00:27:47;;;;;;;9.07;6.07;;;;;;;12.05;67.84;97451.97;4972468;28;20098;-74
2023/03/25 00:30:17;;;;;;;31.17;10.30;;;;;;;12.05;68.32;97446.47;4972429;28;20023;-74
2023/03/25 00:32:51;;;;;;;37.30;12.23;;;;;;;12.03;68.22;97442.44;4972107;28;20038;-74
2023/03/25 00:35:18;;;;;;;22.90;9.65;;;;;;;12.02;68.17;97440.84;4973364;28;20067;-75
2023/03/25 00:37:46;;;;;;;22.02;8.93;;;;;;;12.04;68.22;97441.28;4973611;28;20023;-74
2023/03/25 00:40:13;;;;;;;12.00;7.20;;;;;;;12.03;68.08;97443.25;4973779;28;20046;-75
2023/03/25 00:42:43;;;;;;;8.48;6.10;;;;;;;12.03;68.21;97447.91;4973026;28;20062;-73
2023/03/25 00:45:10;;;;;;;8.80;6.05;;;;;;;12.04;68.08;97446.78;4973382;28;20089;-72
2023/03/25 00:47:35;;;;;;;8.40;6.20;;;;;;;12.05;67.84;97442.91;4972781;28;20391;-73
2023/03/25 00:50:02;;;;;;;8.18;5.05;;;;;;;12.05;67.99;97443.72;4973976;28;20038;-74
2023/03/25 00:52:28;;;;;;;8.00;5.03;;;;;;;12.06;68.13;97445.34;4972763;28;20026;-76
2023/03/25 00:54:53;;;;;;;7.88;5.13;;;;;;;12.06;68.26;97434.34;4971668;28;20023;-76
2023/03/25 00:57:18;;;;;;;8.20;5.70;;;;;;;12.09;68.56;97443.06;4973928;28;20074;-76
2023/03/25 00:59:45;;;;;;;7.20;5.28;;;;;;;12.12;68.29;97443.19;4973698;28;20471;-76
2023/03/25 01:02:10;;;;;;;7.38;4.65;;;;;;;12.14;68.24;97449.16;4972791;28;20035;-76
2023/03/25 01:04:38;;;;;;;5.85;4.43;;;;;;;12.15;68.79;97450.00;4972976;28;20029;-76
2023/03/25 01:07:03;;;;;;;6.82;4.50;;;;;;;12.12;69.06;97456.16;4972765;28;20853;-74
2023/03/25 01:09:29;;;;;;;6.25;4.80;;;;;;;12.08;68.99;97453.22;4988661;28;20031;-74
2023/03/25 01:11:55;;;;;;;7.90;5.13;;;;;;;12.04;68.98;97452.28;4972866;28;20045;-74
2023/03/25 01:14:26;;;;;;;7.65;5.47;;;;;;;12.00;68.83;97454.91;4972789;28;20038;-74
2023/03/25 01:16:53;;;;;;;6.95;4.57;;;;;;;11.99;69.20;97456.03;4973103;28;20463;-74
2023/03/25 01:19:19;;;;;;;6.75;4.07;;;;;;;11.96;68.85;97445.66;4973125;28;20030;-74
2023/03/25 01:21:44;;;;;;;5.65;4.15;;;;;;;11.97;69.12;97432.75;4972338;28;20026;-74
2023/03/25 01:24:12;;;;;;;4.50;3.50;;;;;;;11.96;69.00;97434.69;4972732;28;20384;-74
2023/03/25 01:26:40;;;;;;;4.93;4.05;;;;;;;11.95;69.18;97444.06;4971409;28;20035;-74
2023/03/25 01:29:05;;;;;;;5.40;3.45;;;;;;;11.90;69.28;97445.06;4973079;28;20053;-74
2023/03/25 01:31:31;;;;;;;5.47;3.47;;;;;;;11.83;68.67;97458.50;4971677;28;20479;-74
2023/03/25 01:33:57;;;;;;;5.30;3.30;;;;;;;11.80;69.06;97455.63;4972820;28;20033;-73
2023/03/25 01:36:24;;;;;;;4.65;3.20;;;;;;;11.79;68.54;97451.25;4972785;28;20035;-74
2023/03/25 01:38:50;;;;;;;6.47;3.60;;;;;;;11.77;68.42;97452.38;4972889;28;20053;-74
2023/03/25 01:41:16;;;;;;;5.40;3.70;;;;;;;11.76;68.66;97433.47;4972194;28;20121;-73
2023/03/25 01:43:41;;;;;;;4.20;3.15;;;;;;;11.75;68.79;97440.09;4968466;28;20030;-73
2023/03/25 01:46:13;;;;;;;5.18;4.38;;;;;;;11.74;68.46;97433.00;4970775;28;20044;-74
2023/03/25 01:48:41;;;;;;;5.35;4.15;;;;;;;11.74;68.21;97430.25;4972039;28;20070;-74
2023/03/25 01:51:15;;;;;;;6.22;4.30;;;;;;;11.72;68.56;97446.25;4972247;28;20023;-74
2023/03/25 01:53:41;;;;;;;4.40;3.50;;;;;;;11.72;68.58;97451.75;4972721;28;20043;-73
2023/03/25 01:56:10;;;;;;;4.13;3.30;;;;;;;11.70;68.11;97446.59;4972638;28;20472;-74
2023/03/25 01:58:36;;;;;;;4.20;3.33;;;;;;;11.70;68.83;97445.78;4971728;28;20031;-74
2023/03/25 02:01:02;;;;;;;4.63;3.55;;;;;;;11.67;68.45;97436.25;4969940;28;20355;-73
2023/03/25 02:03:30;;;;;;;5.82;3.60;;;;;;;11.67;67.98;97438.19;4971312;28;20511;-74
2023/03/25 02:06:16;;;;;;;4.75;3.80;;;;;;;11.64;67.91;97441.59;4972275;28;20101;-74
2023/03/25 02:08:42;;;;;;;5.22;3.50;;;;;;;11.61;68.15;97437.56;4972271;28;20038;-73
2023/03/25 02:11:09;;;;;;;4.95;3.65;;;;;;;11.58;68.07;97436.28;4971020;28;20049;-74
2023/03/25 02:13:38;;;;;;;4.30;3.45;;;;;;;11.53;68.47;97436.47;4972218;28;20052;-74
2023/03/25 02:16:22;;;;;;;3.70;3.30;;;;;;;11.49;68.25;97440.19;4971768;28;20042;-73
2023/03/25 02:18:50;;;;;;;11.10;6.18;;;;;;;11.46;67.96;97433.41;4971995;28;20341;-73
2023/03/25 02:21:49;;;;;;;9.93;5.13;;;;;;;11.43;68.54;97456.03;4974007;28;20035;-73
2023/03/25 02:24:34;;;;;;;6.32;4.53;;;;;;;11.41;68.81;97461.84;4971896;28;20031;-74
2023/03/25 02:27:14;;;;;;;5.63;3.95;;;;;;;11.37;68.40;97465.56;4972125;28;20077;-74
2023/03/25 02:29:47;;;;;;;7.50;4.55;;;;;;;11.36;68.47;97480.44;4971990;28;20535;-74
2023/03/25 02:32:39;;;;;;;8.40;5.65;;;;;;;11.30;68.00;97471.56;4971225;28;20853;-74
2023/03/25 02:35:42;;;;;;;10.68;6.57;;;;;;;11.28;68.96;97457.34;4972123;28;20034;-74
2023/03/25 02:38:35;;;;;;;6.50;4.30;;;;;;;11.25;68.05;97450.56;4971737;28;20443;-74
2023/03/25 02:41:13;;;;;;;9.63;5.10;;;;;;;11.23;68.13;97455.56;4968949;28;20097;-73
2023/03/25 02:43:52;;;;;;;8.35;5.80;;;;;;;11.21;68.11;97455.09;4970809;28;20062;-74
2023/03/25 02:46:19;;;;;;;9.38;6.18;;;;;;;11.19;68.56;97449.16;4971893;28;20078;-73
2023/03/25 02:48:57;;;;;;;10.38;5.32;;;;;;;11.17;68.29;97452.19;4972166;28;20097;-74
2023/03/25 02:51:32;;;;;;;8.35;4.65;;;;;;;11.17;68.44;97460.44;4967666;28;20038;-73
2023/03/25 02:54:04;;;;;;;6.80;4.80;;;;;;;11.16;68.01;97460.78;4971383;28;20547;-74
2023/03/25 02:56:31;;;;;;;9.93;4.20;;;;;;;11.15;68.64;97462.69;4970730;28;20383;-73
2023/03/25 02:59:01;;;;;;;8.18;4.70;;;;;;;11.13;68.62;97467.69;4971930;28;20026;-74
2023/03/25 03:01:26;;;;;;;7.47;4.00;;;;;;;11.12;68.95;97468.03;4971241;28;20117;-74
2023/03/25 03:03:53;;;;;;;9.18;5.25;;;;;;;11.13;68.01;97480.63;4971736;28;20101;-74
2023/03/25 03:06:20;;;;;;;9.43;5.50;;;;;;;11.08;68.43;97484.31;4971471;28;20038;-74
2023/03/25 03:08:54;;;;;;;8.82;4.70;;;;;;;11.07;68.40;97481.91;4971949;28;20027;-74
2023/03/25 03:11:58;;;;;;;6.10;3.58;;;;;;;11.04;68.49;97488.06;4969974;28;20030;-73
2023/03/25 03:14:36;;;;;;;5.65;3.83;;;;;;;11.02;68.59;97488.34;4971670;28;20476;-73
2023/03/25 03:17:07;;;;;;;4.75;3.10;;;;;;;11.00;68.24;97488.69;4971119;28;20045;-74
2023/03/25 03:20:03;;;;;;;3.92;2.85;;;;;;;10.98;68.32;97496.44;4971445;28;20419;-73
2023/03/25 03:22:37;;;;;;;4.80;2.60;;;;;;;10.96;67.91;97495.94;4971196;28;20042;-72
2023/03/25 03:25:19;;;;;;;2.85;2.40;;;;;;;10.93;67.92;97491.09;4986573;28;20031;-72
2023/03/25 03:27:51;;;;;;;4.93;2.83;;;;;;;10.92;67.88;97497.72;4973043;28;20391;-73
2023/03/25 03:30:37;;;;;;;5.47;3.58;;;;;;;10.88;67.91;97488.53;4971631;28;20089;-73
2023/03/25 03:33:30;;;;;;;6.70;4.07;;;;;;;10.85;67.66;97495.47;4970974;28;20037;-72
2023/03/25 03:36:15;;;;;;;9.88;5.65;;;;;;;10.84;67.68;97491.09;4970783;28;20038;-73
2023/03/25 03:38:47;;;;;;;6.65;4.70;;;;;;;10.83;67.97;97494.97;4972043;28;20031;-73
2023/03/25 03:41:21;;;;;;;6.55;4.00;;;;;;;10.79;68.12;97491.25;4970923;28;20039;-72
2023/03/25 03:44:01;;;;;;;6.22;3.97;;;;;;;10.78;68.20;97488.84;4970954;28;20085;-73
2023/03/25 03:46:46;;;;;;;10.20;6.00;;;;;;;10.74;68.26;97479.66;4971165;28;20039;-73
2023/03/25 03:49:17;;;;;;;6.57;4.57;;;;;;;10.70;68.44;97474.81;4969489;28;20467;-73
2023/03/25 03:51:51;;;;;;;7.55;4.13;;;;;;;10.69;67.93;97477.84;4967847;28;20039;-72
2023/03/25 03:54:34;;;;;;;6.18;3.65;;;;;;;10.68;67.55;97488.03;4973566;28;20105;-73
2023/03/25 03:57:04;;;;;;;5.88;3.33;;;;;;;10.66;68.04;97484.81;4973588;28;20541;-74
2023/03/25 03:59:46;;;;;;;4.75;2.70;;;;;;;10.65;67.40;97491.41;4973629;28;20046;-73
2023/03/25 04:02:40;;;;;;;7.25;2.53;;;;;;;10.61;67.48;97495.09;4972437;28;20574;-73
2023/03/25 04:05:12;;;;;;;4.78;2.92;;;;;;;10.59;67.73;97489.94;4973035;28;20503;-73
2023/03/25 04:07:53;;;;;;;4.05;2.22;;;;;;;10.56;67.28;97496.06;4973265;28;20031;-72
2023/03/25 04:10:45;;;;;;;5.05;2.63;;;;;;;10.52;67.61;97497.84;4969528;28;20038;-73
2023/03/25 04:13:14;;;;;;;3.53;2.58;;;;;;;10.51;67.08;97490.72;4974057;28;20039;-73
2023/03/25 04:15:41;;;;;;;5.17;3.37;;;;;;;10.48;68.10;97494.94;4974459;28;20503;-73
2023/03/25 04:18:07;;;;;;;5.68;3.30;;;;;;;10.46;67.21;97496.38;4974752;28;20030;-72
2023/03/25 04:20:35;;;;;;;5.03;3.17;;;;;;;10.44;67.04;97491.22;4974735;28;20031;-73
2023/03/25 04:23:03;;;;;;;5.97;3.78;;;;;;;10.46;66.79;97501.84;4974630;28;20042;-72
2023/03/25 04:25:31;;;;;;;10.23;7.57;;;;;;;10.45;67.60;97502.97;4974509;28;20376;-73
2023/03/25 04:27:57;;;;;;;9.27;5.47;;;;;;;10.45;67.12;97508.47;4974712;28;20050;-73
2023/03/25 04:30:24;;;;;;;6.68;4.10;;;;;;;10.44;67.38;97504.91;4974529;28;20043;-73
2023/03/25 04:32:50;;;;;;;7.07;3.85;;;;;;;10.41;67.40;97502.81;4974249;28;20022;-73
2023/03/25 04:35:18;;;;;;;13.38;6.65;;;;;;;10.39;66.55;97514.09;4974685;28;20387;-73
2023/03/25 04:37:44;;;;;;;12.68;6.85;;;;;;;10.41;66.56;97502.81;4975008;28;20035;-73
2023/03/25 04:40:12;;;;;;;15.73;11.00;;;;;;;10.38;66.80;97501.50;4974764;28;20105;-73
2023/03/25 04:42:41;;;;;;;7.95;5.60;;;;;;;10.35;66.98;97509.53;4974303;28;20038;-73
2023/03/25 04:45:12;;;;;;;5.68;4.20;;;;;;;10.32;67.17;97513.75;4974357;28;20031;-73
2023/03/25 04:47:43;;;;;;;6.47;3.83;;;;;;;10.28;67.21;97510.00;4974747;28;20523;-74
2023/03/25 04:50:17;;;;;;;6.72;4.20;;;;;;;10.27;67.45;97513.88;4974674;28;20022;-73
2023/03/25 04:52:43;;;;;;;8.70;5.05;;;;;;;10.25;67.13;97508.69;4973830;28;20038;-73
2023/03/25 04:55:11;;;;;;;20.73;9.68;;;;;;;10.21;67.21;97506.91;4974452;28;20035;-73
2023/03/25 04:57:37;;;;;;;14.55;7.80;;;;;;;10.16;66.82;97504.31;4974177;28;20031;-73
2023/03/25 05:00:05;;;;;;;11.95;6.95;;;;;;;10.12;67.20;97507.69;4974288;28;20527;-73
2023/03/25 05:02:31;;;;;;;17.08;8.95;;;;;;;10.09;66.67;97508.31;4973474;28;20035;-73
2023/03/25 05:05:01;;;;;;;16.30;8.40;;;;;;;10.08;67.26;97514.13;4972851;28;20387;-73
2023/03/25 05:07:28;;;;;;;10.85;6.78;;;;;;;10.08;67.01;97525.88;4974153;28;20542;-73
2023/03/25 05:09:55;;;;;;;14.20;8.10;;;;;;;10.05;67.00;97515.56;4991921;28;20025;-73
2023/03/25 05:12:21;;;;;;;10.93;6.72;;;;;;;10.06;67.07;97517.16;4992553;28;20041;-74
2023/03/25 05:14:47;;;;;;;12.32;6.68;;;;;;;10.06;67.25;97522.66;4993193;28;20114;-72
2023/03/25 05:17:12;;;;;;;8.77;5.60;;;;;;;10.07;66.90;97513.31;4993079;28;20039;-73
2023/03/25 05:19:42;;;;;;;8.85;5.25;;;;;;;10.07;67.50;97505.09;4993198;28;20031;-73
2023/03/25 05:22:07;;;;;;;9.02;5.68;;;;;;;10.09;67.69;97510.28;4974497;28;20084;-73
2023/03/25 05:24:33;;;;;;;11.18;7.50;;;;;;;10.11;67.39;97522.50;4973734;28;20038;-73
2023/03/25 05:27:01;;;;;;;13.65;7.88;;;;;;;10.10;67.64;97520.09;4973213;28;20125;-73
2023/03/25 05:29:26;;;;;;;10.18;7.35;;;;;;;10.08;67.12;97528.63;4973176;28;20065;-73
2023/03/25 05:31:52;;;;;;;14.48;9.45;;;;;;;10.08;67.61;97528.63;4971954;28;20026;-72
2023/03/25 05:34:19;;;;;;;14.32;9.48;;;;;;;10.07;67.95;97527.00;4973136;28;20031;-73
2023/03/25 05:36:44;;;;;;;14.38;10.10;;;;;;;10.06;68.05;97525.38;4973337;28;20050;-73
2023/03/25 05:39:10;;;;;;;17.70;13.40;;;;;;;10.06;68.25;97521.84;4973015;28;20066;-72
2023/03/25 05:41:38;;;;;;;17.77;11.48;;;;;;;10.08;68.36;97536.03;4972921;28;20022;-73
2023/03/25 05:44:09;;;;;;;15.38;10.48;;;;;;;10.08;67.45;97527.81;4973065;28;20117;-72
2023/03/25 05:46:34;;;;;;;16.02;10.95;;;;;;;10.08;68.09;97523.13;4972196;28;20084;-73
2023/03/25 05:49:00;;;;;;;17.73;11.82;;;;;;;10.12;68.15;97521.38;4973208;28;20027;-73
2023/03/25 05:51:27;;;;;;;18.00;13.18;;;;;;;10.18;68.70;97529.47;4972171;28;20039;-73
2023/03/25 05:53:53;;;;;;;17.42;13.23;;;;;;;10.23;68.41;97519.16;4973298;28;20031;-73
2023/03/25 05:56:20;;;;;;;16.48;10.77;;;;;;;10.31;68.52;97525.00;4971910;28;20034;-73
2023/03/25 05:58:50;;;;;;;14.60;11.00;;;;;;;10.36;68.57;97531.16;4972562;28;20027;-72
2023/03/25 06:01:16;;;;;;;;;;;;;;;10.41;68.34;97536.50;4972515;28;20454;-72
2023/03/25 06:03:43;;;;;;;17.42;12.38;;;;;;;10.46;68.77;97540.22;4972913;28;20001;-72
2023/03/25 06:06:12;;;;;;;19.52;14.98;;;;;;;10.45;68.24;97535.88;4971606;28;20177;-72
2023/03/25 06:08:42;;;;;;;17.48;11.40;;;;;;;10.46;68.87;97540.22;4972993;28;20030;-73
2023/03/25 06:11:08;;;;;;;19.77;11.90;;;;;;;10.49;69.69;97551.38;4972100;28;20030;-73
2023/03/25 06:13:37;;;;;;;24.77;15.73;;;;;;;10.51;69.21;97549.13;4972511;28;20038;-73
2023/03/25 06:16:07;;;;;;;21.00;14.82;;;;;;;10.53;69.69;97551.53;4972233;28;20398;-73
2023/03/25 06:18:33;;;;;;;20.58;14.85;;;;;;;10.54;69.95;97551.25;4984528;28;20034;-73
2023/03/25 06:20:58;;;;;;;17.08;13.27;;;;;;;10.58;69.58;97543.16;4970879;28;20030;-73
2023/03/25 06:23:25;;;;;;;17.00;12.80;;;;;;;10.60;69.52;97549.16;4971474;28;20056;-73
2023/03/25 06:25:51;;;;;;;21.08;15.40;;;;;;;10.63;69.41;97551.25;4971608;28;20049;-73
2023/03/25 06:28:20;;;;;;;19.55;13.75;;;;;;;10.64;69.40;97554.78;4972659;28;20030;-73
2023/03/25 06:30:47;;;;;;;18.00;11.65;;;;;;;10.66;69.94;97567.06;4971432;28;20031;-73
2023/03/25 06:33:14;;;;;;;17.60;13.18;;;;;;;10.68;69.79;97572.22;4983128;28;20462;-72
2023/03/25 06:35:41;;;;;;;18.67;13.55;;;;;;;10.70;69.30;97568.06;4970467;28;20026;-73
2023/03/25 06:38:08;;;;;;;25.05;19.95;;;;;;;10.75;70.01;97569.03;4971645;28;20031;-73
2023/03/25 06:40:37;;;;;;;23.10;17.45;;;;;;;10.77;69.48;97562.09;4972949;28;20478;-73
2023/03/25 06:43:04;;;;;;;17.75;12.75;;;;;;;10.85;69.31;97561.31;4971270;28;20035;-73
2023/03/25 06:45:30;;;;;;;17.95;11.82;;;;;;;10.90;69.91;97554.06;4971935;28;20027;-73
2023/03/25 06:47:55;;;;;;;15.20;10.95;;;;;;;10.94;69.73;97544.84;4971604;28;20033;-73
2023/03/25 06:50:20;;;;;;;15.27;11.18;;;;;;;10.98;69.20;97551.31;4971398;28;20483;-73
2023/03/25 06:52:46;;;;;;;15.98;10.13;;;;;;;11.04;68.32;97540.19;4970899;28;20048;-73
2023/03/25 06:55:11;;;;;;;11.32;7.63;;;;;;;11.07;68.74;97551.31;4971423;28;20724;-74
2023/03/25 06:57:36;;;;;;;12.77;7.15;;;;;;;11.13;68.72;97557.47;4971787;28;20030;-72
2023/03/25 07:00:04;;;;;;;11.38;7.20;;;;;;;11.19;68.23;97553.44;4971568;28;20490;-73
2023/03/25 07:02:30;;;;;;;12.60;7.10;;;;;;;11.21;67.59;97550.34;4972532;28;20424;-73
2023/03/25 07:04:55;;;;;;;13.70;9.35;;;;;;;11.24;67.68;97550.50;4971374;28;20046;-73
2023/03/25 07:07:21;;;;;;;9.82;6.95;;;;;;;11.28;67.32;97548.72;4971369;28;20102;-73
2023/03/25 07:09:50;;;;;;;11.88;10.32;;;;;;;11.36;67.17;97549.06;4970117;28;20392;-73
2023/03/25 07:12:16;;;;;;;13.30;7.40;;;;;;;11.43;67.57;97546.63;4970542;28;20061;-73
2023/03/25 07:14:43;;;;;;;15.32;7.60;;;;;;;11.51;67.42;97529.34;4970527;28;20550;-74
2023/03/25 07:17:08;;;;;;;9.43;5.50;;;;;;;11.60;66.75;97538.38;4970113;28;20511;-73
2023/03/25 07:19:33;;;;;;;8.68;5.30;;;;;;;11.67;66.47;97535.13;4971374;28;20038;-73
2023/03/25 07:21:59;;;;;;;7.60;4.40;;;;;;;11.66;66.00;97521.72;4971108;28;20118;-73
2023/03/25 07:24:26;;;;;;;8.82;5.20;;;;;;;11.68;66.50;97527.69;4972688;28;20118;-73
2023/03/25 07:26:51;;;;;;;7.75;5.25;;;;;;;11.72;66.14;97531.41;4972005;28;20062;-73
2023/03/25 07:29:16;;;;;;;8.15;4.40;;;;;;;11.73;65.72;97525.59;4974821;28;20022;-74
2023/03/25 07:31:42;;;;;;;9.23;5.35;;;;;;;11.74;65.41;97535.44;4975940;28;20027;-73
2023/03/25 07:34:07;;;;;;;13.00;6.82;;;;;;;11.74;65.16;97531.88;4976024;28;20443;-73
2023/03/25 07:36:33;;;;;;;13.23;7.07;;;;;;;11.71;65.02;97530.59;4975931;28;20105;-73
2023/03/25 07:38:58;;;;;;;52.10;16.90;;;;;;;11.71;64.62;97535.28;4975995;28;20106;-73
2023/03/25 07:41:24;;;;;;;39.25;13.75;;;;;;;11.69;64.63;97529.31;4974362;28;20471;-73
2023/03/25 07:43:49;;;;;;;29.77;13.30;;;;;;;11.71;64.67;97536.09;4975863;28;20154;-73
2023/03/25 07:46:15;;;;;;;13.32;7.43;;;;;;;11.71;64.48;97538.03;4989055;28;20406;-73
2023/03/25 07:48:40;;;;;;;24.67;11.13;;;;;;;11.74;64.71;97538.19;4975554;28;20038;-73
2023/03/25 07:51:07;;;;;;;34.88;15.02;;;;;;;11.76;64.23;97529.63;4975165;28;20027;-74
2023/03/25 07:53:33;;;;;;;26.95;12.02;;;;;;;11.78;64.23;97524.59;4981679;28;20027;-72
2023/03/25 07:55:58;;;;;;;9.15;5.30;;;;;;;11.82;64.06;97542.03;4975341;28;20030;-73
2023/03/25 07:58:23;;;;;;;10.15;5.68;;;;;;;11.79;63.96;97526.22;4975296;28;20067;-73
2023/03/25 08:00:49;;;;;;;10.13;5.40;;;;;;;11.85;64.19;97530.41;4975694;28;20462;-74
2023/03/25 08:03:14;;;;;;;10.57;6.55;;;;;;;11.91;64.67;97520.03;4975877;28;20424;-73
2023/03/25 08:05:45;;;;;;;12.13;6.55;;;;;;;11.99;64.43;97512.91;4975563;28;20047;-75
2023/03/25 08:08:11;;;;;;;9.00;4.97;;;;;;;12.05;63.89;97506.94;4975876;28;20062;-74
2023/03/25 08:10:36;;;;;;;7.20;4.30;;;;;;;12.11;63.95;97504.78;4975755;28;20066;-74
2023/03/25 08:13:02;;;;;;;8.00;5.25;;;;;;;12.16;63.72;97512.88;4975325;28;20062;-73
2023/03/25 08:15:27;;;;;;;10.15;5.70;;;;;;;12.21;63.66;97498.16;4976097;28;20027;-73
2023/03/25 08:17:53;;;;;;;8.90;5.28;;;;;;;12.27;63.68;97496.00;4975516;28;20078;-75
2023/03/25 08:20:19;;;;;;;11.60;5.15;;;;;;;12.30;63.49;97496.13;4975587;28;20101;-74
2023/03/25 08:22:45;;;;;;;9.60;4.38;;;;;;;12.36;63.24;97497.56;4975451;28;20023;-74
2023/03/25 08:25:10;;;;;;;8.73;4.15;;;;;;;12.39;63.24;97489.78;4971959;28;20035;-74
2023/03/25 08:27:36;;;;;;;10.23;5.00;;;;;;;12.43;63.10;97508.03;4972883;28;20054;-75
2023/03/25 08:30:03;;;;;;;5.80;3.97;;;;;;;12.49;62.71;97506.72;4974556;28;20423;-75
2023/03/25 08:32:29;;;;;;;9.00;4.22;;;;;;;12.50;62.40;97502.03;4973319;28;20015;-74
2023/03/25 08:34:55;;;;;;;8.40;3.70;;;;;;;12.54;61.72;97507.66;4974723;28;20480;-74
2023/03/25 08:37:22;;;;;;;9.30;5.80;;;;;;;12.58;61.94;97509.44;4974038;28;20106;-74
2023/03/25 08:39:49;;;;;;;5.72;3.92;;;;;;;12.66;61.76;97511.28;4973296;28;20502;-74
2023/03/25 08:42:15;;;;;;;11.90;8.32;;;;;;;12.74;61.70;97504.16;4972793;28;20034;-74
2023/03/25 08:44:41;;;;;;;13.13;6.93;;;;;;;12.88;62.00;97509.38;4972985;28;20046;-73
2023/03/25 08:47:07;;;;;;;7.75;4.18;;;;;;;13.04;61.27;97504.09;4972420;28;20415;-73
2023/03/25 08:49:32;;;;;;;20.75;9.88;;;;;;;13.19;60.93;97505.41;4972766;28;20073;-73
2023/03/25 08:51:59;;;;;;;22.92;12.35;;;;;;;13.29;61.32;97506.94;4972698;28;20023;-73
2023/03/25 08:54:28;;;;;;;10.15;5.20;;;;;;;13.42;60.54;97509.78;4972985;28;20031;-73
2023/03/25 08:56:53;;;;;;;11.90;6.03;;;;;;;13.48;59.71;97509.22;4972547;28;20023;-73
2023/03/25 08:59:19;;;;;;;5.60;3.55;;;;;;;13.53;59.85;97492.50;4972592;28;20262;-73
2023/03/25 09:01:44;;;;;;;6.60;3.97;;;;;;;13.62;58.99;97494.34;4972318;28;20019;-74
2023/03/25 09:04:10;;;;;;;5.88;3.65;;;;;;;13.69;59.65;97492.66;4972152;28;20117;-74
2023/03/25 09:06:38;;;;;;;7.43;3.70;;;;;;;13.76;59.60;97483.84;4972174;28;20034;-74
2023/03/25 09:09:04;;;;;;;5.05;3.00;;;;;;;13.84;59.26;97480.19;4972747;28;20034;-74
2023/03/25 09:11:30;;;;;;;5.03;2.83;;;;;;;13.88;59.15;97479.47;4972171;28;20510;-74
2023/03/25 09:13:56;;;;;;;4.75;2.90;;;;;;;13.90;58.84;97477.19;4972566;28;20023;-74
2023/03/25 09:16:21;;;;;;;7.88;3.88;;;;;;;13.98;59.07;97463.31;4972417;28;20775;-74
2023/03/25 09:18:47;;;;;;;5.20;2.83;;;;;;;14.14;57.24;97466.19;4971302;28;20027;-74
2023/03/25 09:21:12;;;;;;;8.60;3.80;;;;;;;14.28;57.79;97465.84;4972536;28;20023;-74
2023/03/25 09:23:38;;;;;;;4.07;1.50;;;;;;;14.44;55.18;97460.44;4973162;28;20066;-74
2023/03/25 09:26:04;;;;;;;4.95;1.88;;;;;;;14.56;54.91;97458.81;4972729;28;20114;-75
2023/03/25 09:28:29;;;;;;;3.47;1.30;;;;;;;14.72;53.80;97461.69;4972970;28;20062;-74
2023/03/25 09:30:55;;;;;;;3.50;1.10;;;;;;;14.89;54.63;97460.59;4972837;28;20087;-75
2023/03/25 09:33:20;;;;;;;2.63;1.10;;;;;;;15.00;53.39;97461.72;4972745;28;20133;-74
2023/03/25 09:35:46;;;;;;;5.53;1.60;;;;;;;15.04;53.65;97459.06;4973036;28;20475;-74
2023/03/25 09:38:12;;;;;;;5.75;1.65;;;;;;;15.02;50.34;97458.59;4973288;28;20368;-74
2023/03/25 09:40:42;;;;;;;4.90;1.45;;;;;;;14.94;49.42;97454.84;4971507;28;20073;-75
2023/03/25 09:43:32;;;;;;;5.03;0.90;;;;;;;14.81;50.43;97458.78;4972098;28;20074;-74
2023/03/25 09:45:58;;;;;;;2.33;1.02;;;;;;;14.71;50.48;97449.81;4971663;28;20031;-75
2023/03/25 09:48:26;;;;;;;3.03;1.08;;;;;;;14.61;49.14;97466.84;4971587;28;20145;-73
2023/03/25 09:50:52;;;;;;;1.55;0.80;;;;;;;14.52;49.45;97471.69;4970157;28;20023;-74
2023/03/25 09:53:45;;;;;;;2.80;0.90;;;;;;;14.42;50.52;97475.72;4970269;28;20029;-74
2023/03/25 09:56:16;;;;;;;3.95;1.50;;;;;;;14.38;48.79;97472.06;4970921;28;20031;-73
2023/03/25 09:58:46;;;;;;;2.45;1.25;;;;;;;14.37;48.29;97462.16;4971764;28;20041;-73
2023/03/25 10:01:30;;;;;;;2.55;1.10;;;;;;;14.29;48.56;97450.09;4971548;28;20042;-75
2023/03/25 10:04:07;;;;;;;4.95;1.88;;;;;;;14.24;48.99;97450.34;4969806;28;20045;-73
2023/03/25 10:06:42;;;;;;;3.70;1.35;;;;;;;14.17;48.83;97448.13;4971383;28;20031;-74
2023/03/25 10:09:30;;;;;;;2.80;1.10;;;;;;;14.09;50.18;97451.81;4971718;28;20026;-75
2023/03/25 10:12:11;;;;;;;1.50;0.75;;;;;;;14.04;49.03;97441.03;4985203;28;20045;-75
2023/03/25 10:15:07;;;;;;;2.58;0.90;;;;;;;13.95;49.76;97447.47;4972055;28;20050;-74
2023/03/25 10:18:00;;;;;;;1.77;0.77;;;;;;;13.88;50.11;97447.22;4969783;28;20038;-74
2023/03/25 10:20:39;;;;;;;2.33;1.00;;;;;;;13.90;50.34;97447.69;4970686;28;20392;-74
2023/03/25 10:23:17;;;;;;;2.72;1.00;;;;;;;14.05;50.08;97442.66;4970192;28;20110;-74
2023/03/25 10:25:46;;;;;;;2.65;0.90;;;;;;;14.22;49.47;97438.84;4970909;28;20040;-74
2023/03/25 10:28:17;;;;;;;;;;;;;;;14.40;50.29;97442.97;4970845;28;20043;-74
2023/03/25 10:30:47;;;;;;;2.63;0.98;;;;;;;14.51;48.28;97456.28;4971451;28;19921;-74
2023/03/25 10:33:21;;;;;;;;;;;;;;;14.44;48.69;97449.38;4972008;28;20031;-73
2023/03/25 10:35:47;;;;;;;3.80;1.25;;;;;;;14.40;49.15;97450.44;4971894;28;19920;-73
2023/03/25 10:38:22;;;;;;;7.70;2.22;;;;;;;14.43;48.75;97452.50;4971469;28;20377;-73
2023/03/25 10:40:52;;;;;;;4.82;1.85;;;;;;;14.55;49.68;97440.66;4970654;28;20117;-72
2023/03/25 10:43:28;;;;;;;1.63;1.20;;;;;;;14.64;49.41;97433.06;4969594;28;20078;-73
2023/03/25 10:46:05;;;;;;;2.70;1.40;;;;;;;14.74;49.59;97432.56;4968789;28;20117;-72
2023/03/25 10:48:31;;;;;;;3.67;1.70;;;;;;;14.90;49.81;97440.13;4970405;28;20133;-73
2023/03/25 10:51:08;;;;;;;4.85;2.78;;;;;;;14.95;49.12;97428.03;4970941;28;20023;-73
2023/03/25 10:53:34;;;;;;;4.93;1.70;;;;;;;15.00;48.86;97430.53;4970632;28;20049;-72
2023/03/25 10:56:07;;;;;;;13.95;9.85;;;;;;;15.00;48.52;97428.59;4970882;28;20027;-72
2023/03/25 10:58:36;;;;;;;2.72;1.27;;;;;;;15.00;47.43;97433.31;4971753;28;20034;-73
2023/03/25 11:01:09;;;;;;;2.00;0.90;;;;;;;14.94;47.65;97426.41;4975737;28;20031;-72
2023/03/25 11:03:36;;;;;;;15.43;4.65;;;;;;;14.85;47.70;97421.88;4970172;28;20495;-72
2023/03/25 11:06:01;;;;;;;17.85;4.55;;;;;;;14.82;47.79;97422.56;4971732;28;20034;-73
2023/03/25 11:08:27;;;;;;;9.85;3.17;;;;;;;14.81;48.39;97422.91;4971259;28;20039;-73
2023/03/25 11:10:56;;;;;;;4.22;1.98;;;;;;;14.76;47.33;97423.97;4970400;28;20026;-73
2023/03/25 11:13:29;;;;;;;3.45;1.00;;;;;;;14.64;47.32;97410.97;4970838;28;20108;-72
2023/03/25 11:15:58;;;;;;;2.38;1.20;;;;;;;14.61;47.93;97422.72;4971352;28;20031;-73
2023/03/25 11:18:35;;;;;;;4.43;2.22;;;;;;;14.67;47.63;97426.00;4971668;28;20031;-73
2023/03/25 11:21:08;;;;;;;14.73;4.95;;;;;;;14.69;47.95;97413.50;4971264;28;20535;-73
2023/03/25 11:23:35;;;;;;;3.10;1.52;;;;;;;14.78;47.68;97420.84;4971195;28;20023;-73
2023/03/25 11:26:34;;;;;;;5.60;2.00;;;;;;;14.86;48.15;97408.84;4971184;28;20047;-74
2023/03/25 11:29:04;;;;;;;10.70;3.47;;;;;;;14.93;48.06;97411.00;4971390;28;20483;-73
2023/03/25 11:31:34;;;;;;;8.57;2.70;;;;;;;14.92;47.91;97409.41;4972149;28;20055;-72
2023/03/25 11:34:03;;;;;;;5.30;2.25;;;;;;;14.96;48.18;97416.66;4971391;28;20046;-73
2023/03/25 11:36:30;;;;;;;3.50;1.20;;;;;;;15.05;47.21;97410.19;4980042;28;20053;-73
2023/03/25 11:38:59;;;;;;;2.95;1.10;;;;;;;15.08;47.15;97412.22;4969830;28;20483;-72
2023/03/25 11:41:34;;;;;;;2.65;1.40;;;;;;;15.02;46.59;97392.34;4972328;28;20030;-73